sensor_id;sensor_type;location;lat;lon;timestamp;temperature;humidity
6054;DHT22;3055;50.886;14.814;2023-05-15T00:01:33;12.40;47.60
6054;DHT22;3055;50.886;14.814;2023-05-15T00:04:00;12.50;42.90
6054;DHT22;3055;50.886;14.814;2023-05-15T00:06:27;12.50;23.00
6054;DHT22;3055;50.886;14.814;2023-05-15T00:08:55;12.50;23.60
6054;DHT22;3055;50.886;14.814;2023-05-15T00:11:23;12.50;28.80
6054;DHT22;3055;50.886;14.814;2023-05-15T00:13:52;12.40;39.20
6054;DHT22;3055;50.886;14.814;2023-05-15T00:16:19;12.40;41.30
6054;DHT22;3055;50.886;14.814;2023-05-15T00:18:46;12.20;83.60
6054;DHT22;3055;50.886;14.814;2023-05-15T00:21:13;12.10;99.90
6054;DHT22;3055;50.886;14.814;2023-05-15T00:23:41;12.00;99.90
6054;DHT22;3055;50.886;14.814;2023-05-15T00:26:08;11.90;99.90
6054;DHT22;3055;50.886;14.814;2023-05-15T00:28:37;12.00;99.90
6054;DHT22;3055;50.886;14.814;2023-05-15T00:31:04;12.00;99.90
6054;DHT22;3055;50.886;14.814;2023-05-15T00:33:34;12.00;99.90
6054;DHT22;3055;50.886;14.814;2023-05-15T00:36:01;12.00;99.90
6054;DHT22;3055;50.886;14.814;2023-05-15T00:38:28;12.00;99.90
6054;DHT22;3055;50.886;14.814;2023-05-15T00:40:55;12.00;99.90
6054;DHT22;3055;50.886;14.814;2023-05-15T00:43:23;11.90;99.90
6054;DHT22;3055;50.886;14.814;2023-05-15T00:45:53;12.00;99.90
6054;DHT22;3055;50.886;14.814;2023-05-15T00:48:21;12.00;99.90
6054;DHT22;3055;50.886;14.814;2023-05-15T00:50:50;11.90;99.90
6054;DHT22;3055;50.886;14.814;2023-05-15T00:53:17;11.90;99.90
6054;DHT22;3055;50.886;14.814;2023-05-15T00:55:44;11.90;99.90
6054;DHT22;3055;50.886;14.814;2023-05-15T00:58:13;11.90;99.90
6054;DHT22;3055;50.886;14.814;2023-05-15T01:00:41;11.90;99.90
6054;DHT22;3055;50.886;14.814;2023-05-15T01:03:10;11.90;99.90
6054;DHT22;3055;50.886;14.814;2023-05-15T01:05:37;11.90;99.90
6054;DHT22;3055;50.886;14.814;2023-05-15T01:08:22;11.80;99.90
6054;DHT22;3055;50.886;14.814;2023-05-15T01:10:52;11.80;99.90
6054;DHT22;3055;50.886;14.814;2023-05-15T01:13:21;11.80;99.90
6054;DHT22;3055;50.886;14.814;2023-05-15T01:15:48;11.90;99.90
6054;DHT22;3055;50.886;14.814;2023-05-15T01:18:17;11.90;99.90
6054;DHT22;3055;50.886;14.814;2023-05-15T01:20:54;11.90;99.90
6054;DHT22;3055;50.886;14.814;2023-05-15T01:23:33;12.00;99.90
6054;DHT22;3055;50.886;14.814;2023-05-15T01:26:33;11.90;99.90
6054;DHT22;3055;50.886;14.814;2023-05-15T01:29:06;12.00;99.90
6054;DHT22;3055;50.886;14.814;2023-05-15T01:31:37;11.90;99.90
6054;DHT22;3055;50.886;14.814;2023-05-15T01:34:08;11.90;99.90
6054;DHT22;3055;50.886;14.814;2023-05-15T01:36:41;11.90;99.90
6054;DHT22;3055;50.886;14.814;2023-05-15T01:39:10;11.90;99.90
6054;DHT22;3055;50.886;14.814;2023-05-15T01:41:43;11.90;99.90
6054;DHT22;3055;50.886;14.814;2023-05-15T01:44:17;11.90;99.90
6054;DHT22;3055;50.886;14.814;2023-05-15T01:46:48;11.90;99.90
6054;DHT22;3055;50.886;14.814;2023-05-15T01:49:18;11.80;99.90
6054;DHT22;3055;50.886;14.814;2023-05-15T01:51:50;11.80;99.90
6054;DHT22;3055;50.886;14.814;2023-05-15T01:54:18;11.80;99.90
6054;DHT22;3055;50.886;14.814;2023-05-15T01:56:46;11.80;99.90
6054;DHT22;3055;50.886;14.814;2023-05-15T01:59:15;11.70;99.90
6054;DHT22;3055;50.886;14.814;2023-05-15T02:01:44;11.70;99.90
6054;DHT22;3055;50.886;14.814;2023-05-15T02:04:11;11.70;99.90
6054;DHT22;3055;50.886;14.814;2023-05-15T02:06:40;11.60;99.90
6054;DHT22;3055;50.886;14.814;2023-05-15T02:09:08;11.50;99.90
6054;DHT22;3055;50.886;14.814;2023-05-15T02:11:35;11.50;99.90
6054;DHT22;3055;50.886;14.814;2023-05-15T02:14:03;11.50;99.90
6054;DHT22;3055;50.886;14.814;2023-05-15T02:16:32;11.50;99.90
6054;DHT22;3055;50.886;14.814;2023-05-15T02:18:59;11.50;99.90
6054;DHT22;3055;50.886;14.814;2023-05-15T02:21:27;11.50;99.90
6054;DHT22;3055;50.886;14.814;2023-05-15T02:23:54;11.60;99.90
6054;DHT22;3055;50.886;14.814;2023-05-15T02:26:34;11.60;99.90
6054;DHT22;3055;50.886;14.814;2023-05-15T02:29:11;11.70;99.90
6054;DHT22;3055;50.886;14.814;2023-05-15T02:31:46;11.70;99.90
6054;DHT22;3055;50.886;14.814;2023-05-15T02:34:20;11.80;99.90
6054;DHT22;3055;50.886;14.814;2023-05-15T02:36:51;11.80;99.90
6054;DHT22;3055;50.886;14.814;2023-05-15T02:39:19;11.90;99.90
6054;DHT22;3055;50.886;14.814;2023-05-15T02:41:48;11.90;99.90
6054;DHT22;3055;50.886;14.814;2023-05-15T02:44:17;11.80;99.90
6054;DHT22;3055;50.886;14.814;2023-05-15T02:46:46;11.70;99.90
6054;DHT22;3055;50.886;14.814;2023-05-15T02:49:14;11.60;99.90
6054;DHT22;3055;50.886;14.814;2023-05-15T02:51:41;11.60;99.90
6054;DHT22;3055;50.886;14.814;2023-05-15T02:54:08;11.70;99.90
6054;DHT22;3055;50.886;14.814;2023-05-15T02:56:35;11.70;99.90
6054;DHT22;3055;50.886;14.814;2023-05-15T02:59:03;11.70;99.90
6054;DHT22;3055;50.886;14.814;2023-05-15T03:01:31;11.60;99.90
6054;DHT22;3055;50.886;14.814;2023-05-15T03:03:59;11.60;99.90
6054;DHT22;3055;50.886;14.814;2023-05-15T03:06:26;11.60;99.90
6054;DHT22;3055;50.886;14.814;2023-05-15T03:08:53;11.50;99.90
6054;DHT22;3055;50.886;14.814;2023-05-15T03:11:20;11.50;99.90
6054;DHT22;3055;50.886;14.814;2023-05-15T03:13:47;11.50;99.90
6054;DHT22;3055;50.886;14.814;2023-05-15T03:16:14;11.50;99.90
6054;DHT22;3055;50.886;14.814;2023-05-15T03:18:41;11.40;99.90
6054;DHT22;3055;50.886;14.814;2023-05-15T03:21:09;11.50;99.90
6054;DHT22;3055;50.886;14.814;2023-05-15T03:23:36;11.50;99.90
6054;DHT22;3055;50.886;14.814;2023-05-15T03:26:04;11.50;99.90
6054;DHT22;3055;50.886;14.814;2023-05-15T03:28:30;11.60;99.90
6054;DHT22;3055;50.886;14.814;2023-05-15T03:30:57;11.70;99.90
6054;DHT22;3055;50.886;14.814;2023-05-15T03:33:25;11.70;99.90
6054;DHT22;3055;50.886;14.814;2023-05-15T03:35:52;11.70;99.90
6054;DHT22;3055;50.886;14.814;2023-05-15T03:38:20;11.70;99.90
6054;DHT22;3055;50.886;14.814;2023-05-15T03:40:47;11.70;99.90
6054;DHT22;3055;50.886;14.814;2023-05-15T03:43:14;11.60;99.90
6054;DHT22;3055;50.886;14.814;2023-05-15T03:45:41;11.60;99.90
6054;DHT22;3055;50.886;14.814;2023-05-15T03:48:08;11.60;99.90
6054;DHT22;3055;50.886;14.814;2023-05-15T03:50:35;11.60;99.90
6054;DHT22;3055;50.886;14.814;2023-05-15T03:53:03;11.60;99.90
6054;DHT22;3055;50.886;14.814;2023-05-15T03:55:32;11.60;99.90
6054;DHT22;3055;50.886;14.814;2023-05-15T03:57:59;11.70;99.90
6054;DHT22;3055;50.886;14.814;2023-05-15T04:00:26;11.60;99.90
6054;DHT22;3055;50.886;14.814;2023-05-15T04:02:53;11.70;99.90
6054;DHT22;3055;50.886;14.814;2023-05-15T04:05:20;11.70;99.90
6054;DHT22;3055;50.886;14.814;2023-05-15T04:07:47;11.70;99.90
6054;DHT22;3055;50.886;14.814;2023-05-15T04:10:14;11.70;99.90
6054;DHT22;3055;50.886;14.814;2023-05-15T04:12:42;11.70;99.90
6054;DHT22;3055;50.886;14.814;2023-05-15T04:15:15;11.70;99.90
6054;DHT22;3055;50.886;14.814;2023-05-15T04:17:43;11.70;99.90
6054;DHT22;3055;50.886;14.814;2023-05-15T04:20:12;11.70;99.90
6054;DHT22;3055;50.886;14.814;2023-05-15T04:22:40;11.80;99.90
6054;DHT22;3055;50.886;14.814;2023-05-15T04:25:07;11.80;99.90
6054;DHT22;3055;50.886;14.814;2023-05-15T04:27:35;11.80;99.90
6054;DHT22;3055;50.886;14.814;2023-05-15T04:30:05;11.80;99.90
6054;DHT22;3055;50.886;14.814;2023-05-15T04:32:33;11.70;99.90
6054;DHT22;3055;50.886;14.814;2023-05-15T04:35:00;11.70;99.90
6054;DHT22;3055;50.886;14.814;2023-05-15T04:37:28;11.70;99.90
6054;DHT22;3055;50.886;14.814;2023-05-15T04:39:55;11.80;99.90
6054;DHT22;3055;50.886;14.814;2023-05-15T04:42:22;11.70;99.90
6054;DHT22;3055;50.886;14.814;2023-05-15T04:44:49;11.80;99.90
6054;DHT22;3055;50.886;14.814;2023-05-15T04:47:17;11.70;99.90
6054;DHT22;3055;50.886;14.814;2023-05-15T04:49:44;11.80;99.90
6054;DHT22;3055;50.886;14.814;2023-05-15T04:52:12;11.80;99.90
6054;DHT22;3055;50.886;14.814;2023-05-15T04:54:39;11.80;99.90
6054;DHT22;3055;50.886;14.814;2023-05-15T04:57:07;11.80;99.90
6054;DHT22;3055;50.886;14.814;2023-05-15T04:59:34;11.90;99.90
6054;DHT22;3055;50.886;14.814;2023-05-15T05:02:02;11.80;99.90
6054;DHT22;3055;50.886;14.814;2023-05-15T05:04:30;11.90;99.90
6054;DHT22;3055;50.886;14.814;2023-05-15T05:06:57;11.90;99.90
6054;DHT22;3055;50.886;14.814;2023-05-15T05:09:24;11.90;99.90
6054;DHT22;3055;50.886;14.814;2023-05-15T05:11:51;11.90;99.90
6054;DHT22;3055;50.886;14.814;2023-05-15T05:14:18;12.00;99.90
6054;DHT22;3055;50.886;14.814;2023-05-15T05:16:45;12.00;99.90
6054;DHT22;3055;50.886;14.814;2023-05-15T05:19:12;12.10;99.90
6054;DHT22;3055;50.886;14.814;2023-05-15T05:21:41;12.10;99.90
6054;DHT22;3055;50.886;14.814;2023-05-15T05:24:08;12.20;99.90
6054;DHT22;3055;50.886;14.814;2023-05-15T05:26:36;12.20;99.90
6054;DHT22;3055;50.886;14.814;2023-05-15T05:29:03;12.30;99.90
6054;DHT22;3055;50.886;14.814;2023-05-15T05:31:30;12.20;99.90
6054;DHT22;3055;50.886;14.814;2023-05-15T05:33:57;12.20;99.90
6054;DHT22;3055;50.886;14.814;2023-05-15T05:36:24;12.20;99.90
6054;DHT22;3055;50.886;14.814;2023-05-15T05:38:52;12.20;99.90
6054;DHT22;3055;50.886;14.814;2023-05-15T05:41:19;12.20;99.90
6054;DHT22;3055;50.886;14.814;2023-05-15T05:43:47;12.10;99.90
6054;DHT22;3055;50.886;14.814;2023-05-15T05:46:14;12.20;99.90
6054;DHT22;3055;50.886;14.814;2023-05-15T05:48:41;12.20;99.90
6054;DHT22;3055;50.886;14.814;2023-05-15T05:51:08;12.10;99.90
6054;DHT22;3055;50.886;14.814;2023-05-15T05:53:35;12.00;99.90
6054;DHT22;3055;50.886;14.814;2023-05-15T05:56:04;12.10;99.90
6054;DHT22;3055;50.886;14.814;2023-05-15T05:58:31;12.20;99.90
6054;DHT22;3055;50.886;14.814;2023-05-15T06:00:58;12.30;99.90
6054;DHT22;3055;50.886;14.814;2023-05-15T06:03:26;12.30;99.90
6054;DHT22;3055;50.886;14.814;2023-05-15T06:05:53;12.40;99.90
6054;DHT22;3055;50.886;14.814;2023-05-15T06:08:20;12.30;99.90
6054;DHT22;3055;50.886;14.814;2023-05-15T06:10:47;12.30;99.90
6054;DHT22;3055;50.886;14.814;2023-05-15T06:13:16;12.40;99.90
6054;DHT22;3055;50.886;14.814;2023-05-15T06:15:43;12.40;99.90
6054;DHT22;3055;50.886;14.814;2023-05-15T06:18:11;12.50;99.90
6054;DHT22;3055;50.886;14.814;2023-05-15T06:20:38;12.50;99.90
6054;DHT22;3055;50.886;14.814;2023-05-15T06:23:07;12.50;99.90
6054;DHT22;3055;50.886;14.814;2023-05-15T06:25:34;12.50;99.90
6054;DHT22;3055;50.886;14.814;2023-05-15T06:28:01;12.50;99.90
6054;DHT22;3055;50.886;14.814;2023-05-15T06:30:30;12.50;99.90
6054;DHT22;3055;50.886;14.814;2023-05-15T06:32:57;12.40;99.90
6054;DHT22;3055;50.886;14.814;2023-05-15T06:35:24;12.40;99.90
6054;DHT22;3055;50.886;14.814;2023-05-15T06:37:51;12.40;99.90
6054;DHT22;3055;50.886;14.814;2023-05-15T06:40:19;12.40;99.90
6054;DHT22;3055;50.886;14.814;2023-05-15T06:42:46;12.40;99.90
6054;DHT22;3055;50.886;14.814;2023-05-15T06:45:13;12.40;99.90
6054;DHT22;3055;50.886;14.814;2023-05-15T06:47:41;12.40;99.90
6054;DHT22;3055;50.886;14.814;2023-05-15T06:50:09;12.50;99.90
6054;DHT22;3055;50.886;14.814;2023-05-15T06:52:36;12.50;99.90
6054;DHT22;3055;50.886;14.814;2023-05-15T06:55:04;12.50;99.90
6054;DHT22;3055;50.886;14.814;2023-05-15T06:57:32;12.50;99.90
6054;DHT22;3055;50.886;14.814;2023-05-15T06:59:59;12.50;99.90
6054;DHT22;3055;50.886;14.814;2023-05-15T07:02:26;12.60;99.90
6054;DHT22;3055;50.886;14.814;2023-05-15T07:04:55;12.70;99.90
6054;DHT22;3055;50.886;14.814;2023-05-15T07:07:22;12.70;99.90
6054;DHT22;3055;50.886;14.814;2023-05-15T07:09:49;12.80;99.90
6054;DHT22;3055;50.886;14.814;2023-05-15T07:12:16;12.80;99.90
6054;DHT22;3055;50.886;14.814;2023-05-15T07:14:43;12.90;99.90
6054;DHT22;3055;50.886;14.814;2023-05-15T07:17:10;12.90;99.90
6054;DHT22;3055;50.886;14.814;2023-05-15T07:19:37;12.90;99.90
6054;DHT22;3055;50.886;14.814;2023-05-15T07:22:05;13.00;99.90
6054;DHT22;3055;50.886;14.814;2023-05-15T07:24:32;13.00;99.90
6054;DHT22;3055;50.886;14.814;2023-05-15T07:26:59;13.00;99.90
6054;DHT22;3055;50.886;14.814;2023-05-15T07:29:26;13.10;99.90
6054;DHT22;3055;50.886;14.814;2023-05-15T07:31:53;13.10;99.90
6054;DHT22;3055;50.886;14.814;2023-05-15T07:34:20;13.20;99.90
6054;DHT22;3055;50.886;14.814;2023-05-15T07:36:48;13.20;99.90
6054;DHT22;3055;50.886;14.814;2023-05-15T07:39:16;13.20;99.90
6054;DHT22;3055;50.886;14.814;2023-05-15T07:41:43;13.30;99.90
6054;DHT22;3055;50.886;14.814;2023-05-15T07:44:11;13.40;99.90
6054;DHT22;3055;50.886;14.814;2023-05-15T07:46:38;13.40;99.90
6054;DHT22;3055;50.886;14.814;2023-05-15T07:49:05;13.40;99.90
6054;DHT22;3055;50.886;14.814;2023-05-15T07:51:32;13.40;99.90
6054;DHT22;3055;50.886;14.814;2023-05-15T07:53:59;13.50;99.90
6054;DHT22;3055;50.886;14.814;2023-05-15T07:56:29;13.60;99.90
6054;DHT22;3055;50.886;14.814;2023-05-15T07:58:56;13.70;99.90
6054;DHT22;3055;50.886;14.814;2023-05-15T08:01:23;13.70;99.90
6054;DHT22;3055;50.886;14.814;2023-05-15T08:03:50;13.80;99.90
6054;DHT22;3055;50.886;14.814;2023-05-15T08:06:17;13.90;99.90
6054;DHT22;3055;50.886;14.814;2023-05-15T08:08:44;13.90;99.90
6054;DHT22;3055;50.886;14.814;2023-05-15T08:11:11;13.80;99.90
6054;DHT22;3055;50.886;14.814;2023-05-15T08:13:40;13.70;99.90
6054;DHT22;3055;50.886;14.814;2023-05-15T08:16:07;13.60;99.90
6054;DHT22;3055;50.886;14.814;2023-05-15T08:18:34;13.60;99.90
6054;DHT22;3055;50.886;14.814;2023-05-15T08:21:01;13.70;99.90
6054;DHT22;3055;50.886;14.814;2023-05-15T08:23:28;13.70;99.90
6054;DHT22;3055;50.886;14.814;2023-05-15T08:25:55;13.60;99.90
6054;DHT22;3055;50.886;14.814;2023-05-15T08:28:22;13.60;99.90
6054;DHT22;3055;50.886;14.814;2023-05-15T08:30:50;13.60;99.90
6054;DHT22;3055;50.886;14.814;2023-05-15T08:33:17;13.50;99.90
6054;DHT22;3055;50.886;14.814;2023-05-15T08:35:44;13.40;99.90
6054;DHT22;3055;50.886;14.814;2023-05-15T08:38:13;13.40;99.90
6054;DHT22;3055;50.886;14.814;2023-05-15T08:40:40;13.30;99.90
6054;DHT22;3055;50.886;14.814;2023-05-15T08:43:12;13.40;99.90
6054;DHT22;3055;50.886;14.814;2023-05-15T08:45:40;13.40;99.90
6054;DHT22;3055;50.886;14.814;2023-05-15T08:48:12;13.40;99.90
6054;DHT22;3055;50.886;14.814;2023-05-15T08:50:40;13.40;99.90
6054;DHT22;3055;50.886;14.814;2023-05-15T08:53:09;13.50;99.90
6054;DHT22;3055;50.886;14.814;2023-05-15T08:55:36;13.60;99.90
6054;DHT22;3055;50.886;14.814;2023-05-15T08:58:04;13.70;99.90
6054;DHT22;3055;50.886;14.814;2023-05-15T09:00:31;13.80;99.90
6054;DHT22;3055;50.886;14.814;2023-05-15T09:02:59;13.80;99.90
6054;DHT22;3055;50.886;14.814;2023-05-15T09:05:29;14.00;99.90
6054;DHT22;3055;50.886;14.814;2023-05-15T09:07:56;14.10;99.90
6054;DHT22;3055;50.886;14.814;2023-05-15T09:10:24;14.30;99.90
6054;DHT22;3055;50.886;14.814;2023-05-15T09:12:51;14.40;99.90
6054;DHT22;3055;50.886;14.814;2023-05-15T09:15:20;14.40;99.90
6054;DHT22;3055;50.886;14.814;2023-05-15T09:17:49;14.50;99.90
6054;DHT22;3055;50.886;14.814;2023-05-15T09:20:29;14.30;99.90
6054;DHT22;3055;50.886;14.814;2023-05-15T09:22:57;14.30;99.90
6054;DHT22;3055;50.886;14.814;2023-05-15T09:25:37;14.20;99.90
6054;DHT22;3055;50.886;14.814;2023-05-15T09:28:05;14.20;99.90
6054;DHT22;3055;50.886;14.814;2023-05-15T09:30:32;14.20;99.90
6054;DHT22;3055;50.886;14.814;2023-05-15T09:33:00;14.20;99.90
6054;DHT22;3055;50.886;14.814;2023-05-15T09:35:33;14.20;99.90
6054;DHT22;3055;50.886;14.814;2023-05-15T09:38:01;14.20;99.90
6054;DHT22;3055;50.886;14.814;2023-05-15T09:40:30;14.30;99.90
6054;DHT22;3055;50.886;14.814;2023-05-15T09:42:57;14.30;99.90
6054;DHT22;3055;50.886;14.814;2023-05-15T09:45:25;14.30;99.90
6054;DHT22;3055;50.886;14.814;2023-05-15T09:47:54;14.30;99.90
6054;DHT22;3055;50.886;14.814;2023-05-15T09:50:22;14.30;99.90
6054;DHT22;3055;50.886;14.814;2023-05-15T09:52:51;14.20;99.90
6054;DHT22;3055;50.886;14.814;2023-05-15T09:55:19;14.20;99.90
6054;DHT22;3055;50.886;14.814;2023-05-15T09:58:08;14.20;99.90
6054;DHT22;3055;50.886;14.814;2023-05-15T10:00:36;14.20;99.90
6054;DHT22;3055;50.886;14.814;2023-05-15T10:03:05;14.20;99.90
6054;DHT22;3055;50.886;14.814;2023-05-15T10:05:33;14.10;99.90
6054;DHT22;3055;50.886;14.814;2023-05-15T10:08:01;14.00;99.90
6054;DHT22;3055;50.886;14.814;2023-05-15T10:10:29;13.90;99.90
6054;DHT22;3055;50.886;14.814;2023-05-15T10:12:58;13.90;99.90
6054;DHT22;3055;50.886;14.814;2023-05-15T10:15:28;13.90;99.90
6054;DHT22;3055;50.886;14.814;2023-05-15T10:17:55;14.00;99.90
6054;DHT22;3055;50.886;14.814;2023-05-15T10:20:24;13.90;99.90
6054;DHT22;3055;50.886;14.814;2023-05-15T10:22:55;13.90;99.90
6054;DHT22;3055;50.886;14.814;2023-05-15T10:25:32;14.00;99.90
6054;DHT22;3055;50.886;14.814;2023-05-15T10:28:02;14.00;99.90
6054;DHT22;3055;50.886;14.814;2023-05-15T10:30:30;14.10;99.90
6054;DHT22;3055;50.886;14.814;2023-05-15T10:32:58;14.20;99.90
6054;DHT22;3055;50.886;14.814;2023-05-15T10:35:27;14.30;99.90
6054;DHT22;3055;50.886;14.814;2023-05-15T10:37:54;14.40;99.90
6054;DHT22;3055;50.886;14.814;2023-05-15T10:40:23;14.30;99.90
6054;DHT22;3055;50.886;14.814;2023-05-15T10:42:53;14.40;99.90
6054;DHT22;3055;50.886;14.814;2023-05-15T10:45:21;14.40;99.90
6054;DHT22;3055;50.886;14.814;2023-05-15T10:47:49;14.40;99.90
6054;DHT22;3055;50.886;14.814;2023-05-15T10:50:17;14.40;99.90
6054;DHT22;3055;50.886;14.814;2023-05-15T10:52:44;14.40;99.90
6054;DHT22;3055;50.886;14.814;2023-05-15T10:55:13;14.40;99.90
6054;DHT22;3055;50.886;14.814;2023-05-15T10:57:43;14.50;99.90
6054;DHT22;3055;50.886;14.814;2023-05-15T11:00:28;14.70;99.90
6054;DHT22;3055;50.886;14.814;2023-05-15T11:02:57;14.90;99.90
6054;DHT22;3055;50.886;14.814;2023-05-15T11:05:25;15.00;99.90
6054;DHT22;3055;50.886;14.814;2023-05-15T11:08:23;15.10;99.90
6054;DHT22;3055;50.886;14.814;2023-05-15T11:10:52;15.10;99.90
6054;DHT22;3055;50.886;14.814;2023-05-15T11:13:19;15.20;99.90
6054;DHT22;3055;50.886;14.814;2023-05-15T11:15:48;15.30;99.90
6054;DHT22;3055;50.886;14.814;2023-05-15T11:18:15;15.30;99.90
6054;DHT22;3055;50.886;14.814;2023-05-15T11:21:05;15.40;99.90
6054;DHT22;3055;50.886;14.814;2023-05-15T11:23:40;15.40;99.90
6054;DHT22;3055;50.886;14.814;2023-05-15T11:26:07;15.30;99.90
6054;DHT22;3055;50.886;14.814;2023-05-15T11:28:41;15.50;99.90
6054;DHT22;3055;50.886;14.814;2023-05-15T11:31:10;15.50;99.90
6054;DHT22;3055;50.886;14.814;2023-05-15T11:33:38;15.50;99.30
6054;DHT22;3055;50.886;14.814;2023-05-15T11:36:06;15.50;69.40
6054;DHT22;3055;50.886;14.814;2023-05-15T11:38:38;15.40;54.60
6054;DHT22;3055;50.886;14.814;2023-05-15T11:41:17;15.20;94.20
6054;DHT22;3055;50.886;14.814;2023-05-15T11:43:44;15.10;99.90
6054;DHT22;3055;50.886;14.814;2023-05-15T11:46:14;15.00;99.90
6054;DHT22;3055;50.886;14.814;2023-05-15T11:48:42;14.90;83.50
6054;DHT22;3055;50.886;14.814;2023-05-15T11:51:15;14.80;99.90
6054;DHT22;3055;50.886;14.814;2023-05-15T11:53:43;14.80;99.90
6054;DHT22;3055;50.886;14.814;2023-05-15T11:56:16;14.80;99.90
6054;DHT22;3055;50.886;14.814;2023-05-15T11:58:44;15.00;99.90
6054;DHT22;3055;50.886;14.814;2023-05-15T12:01:14;15.10;99.20
6054;DHT22;3055;50.886;14.814;2023-05-15T12:03:41;15.40;95.10
6054;DHT22;3055;50.886;14.814;2023-05-15T12:06:09;15.60;93.20
6054;DHT22;3055;50.886;14.814;2023-05-15T12:08:37;15.90;60.90
6054;DHT22;3055;50.886;14.814;2023-05-15T12:11:04;16.20;34.60
6054;DHT22;3055;50.886;14.814;2023-05-15T12:13:31;16.50;7.80
6054;DHT22;3055;50.886;14.814;2023-05-15T12:16:00;16.70;1.00
6054;DHT22;3055;50.886;14.814;2023-05-15T12:18:29;16.90;1.00
6054;DHT22;3055;50.886;14.814;2023-05-15T12:20:56;17.00;1.00
6054;DHT22;3055;50.886;14.814;2023-05-15T12:23:25;16.90;99.90
6054;DHT22;3055;50.886;14.814;2023-05-15T12:25:56;16.80;99.90
6054;DHT22;3055;50.886;14.814;2023-05-15T12:28:25;17.00;99.90
6054;DHT22;3055;50.886;14.814;2023-05-15T12:30:53;17.20;5.50
6054;DHT22;3055;50.886;14.814;2023-05-15T12:33:20;17.20;1.00
6054;DHT22;3055;50.886;14.814;2023-05-15T12:35:53;17.50;1.00
6054;DHT22;3055;50.886;14.814;2023-05-15T12:38:21;17.90;1.00
6054;DHT22;3055;50.886;14.814;2023-05-15T12:40:51;18.40;1.00
6054;DHT22;3055;50.886;14.814;2023-05-15T12:43:19;18.70;99.90
6054;DHT22;3055;50.886;14.814;2023-05-15T12:45:51;19.00;99.90
6054;DHT22;3055;50.886;14.814;2023-05-15T12:48:18;19.40;99.90
6054;DHT22;3055;50.886;14.814;2023-05-15T12:50:45;19.70;99.90
6054;DHT22;3055;50.886;14.814;2023-05-15T12:53:14;20.10;99.90
6054;DHT22;3055;50.886;14.814;2023-05-15T12:55:44;20.40;99.90
6054;DHT22;3055;50.886;14.814;2023-05-15T12:58:13;20.70;99.90
6054;DHT22;3055;50.886;14.814;2023-05-15T13:00:43;20.80;99.90
6054;DHT22;3055;50.886;14.814;2023-05-15T13:03:11;20.90;99.90
6054;DHT22;3055;50.886;14.814;2023-05-15T13:05:41;20.80;99.90
6054;DHT22;3055;50.886;14.814;2023-05-15T13:08:15;21.00;99.90
6054;DHT22;3055;50.886;14.814;2023-05-15T13:10:43;21.10;99.90
6054;DHT22;3055;50.886;14.814;2023-05-15T13:13:10;21.40;99.90
6054;DHT22;3055;50.886;14.814;2023-05-15T13:15:39;21.40;55.90
6054;DHT22;3055;50.886;14.814;2023-05-15T13:18:08;21.30;32.00
6054;DHT22;3055;50.886;14.814;2023-05-15T13:20:37;20.90;9.40
6054;DHT22;3055;50.886;14.814;2023-05-15T13:23:06;20.80;6.30
6054;DHT22;3055;50.886;14.814;2023-05-15T13:25:35;20.70;1.00
6054;DHT22;3055;50.886;14.814;2023-05-15T13:28:03;20.70;1.00
6054;DHT22;3055;50.886;14.814;2023-05-15T13:30:32;20.90;1.00
6054;DHT22;3055;50.886;14.814;2023-05-15T13:33:00;21.20;1.00
6054;DHT22;3055;50.886;14.814;2023-05-15T13:35:27;21.20;1.00
6054;DHT22;3055;50.886;14.814;2023-05-15T13:37:55;21.20;1.00
6054;DHT22;3055;50.886;14.814;2023-05-15T13:40:22;21.00;1.00
6054;DHT22;3055;50.886;14.814;2023-05-15T13:42:51;20.50;1.00
6054;DHT22;3055;50.886;14.814;2023-05-15T13:45:18;19.90;1.00
6054;DHT22;3055;50.886;14.814;2023-05-15T13:47:45;19.40;1.00
6054;DHT22;3055;50.886;14.814;2023-05-15T13:50:13;19.00;1.00
6054;DHT22;3055;50.886;14.814;2023-05-15T13:52:42;19.00;1.00
6054;DHT22;3055;50.886;14.814;2023-05-15T13:55:09;18.90;1.00
6054;DHT22;3055;50.886;14.814;2023-05-15T13:57:37;18.80;1.00
6054;DHT22;3055;50.886;14.814;2023-05-15T14:00:07;19.10;1.00
6054;DHT22;3055;50.886;14.814;2023-05-15T14:02:37;19.70;1.00
6054;DHT22;3055;50.886;14.814;2023-05-15T14:05:05;20.80;1.00
6054;DHT22;3055;50.886;14.814;2023-05-15T14:07:32;21.80;1.00
6054;DHT22;3055;50.886;14.814;2023-05-15T14:09:59;22.80;1.00
6054;DHT22;3055;50.886;14.814;2023-05-15T14:12:26;22.80;1.00
6054;DHT22;3055;50.886;14.814;2023-05-15T14:14:53;22.30;1.00
6054;DHT22;3055;50.886;14.814;2023-05-15T14:17:22;21.60;1.00
6054;DHT22;3055;50.886;14.814;2023-05-15T14:19:50;21.40;1.00
6054;DHT22;3055;50.886;14.814;2023-05-15T14:22:17;21.20;1.00
6054;DHT22;3055;50.886;14.814;2023-05-15T14:24:44;21.20;1.00
6054;DHT22;3055;50.886;14.814;2023-05-15T14:27:11;20.80;1.00
6054;DHT22;3055;50.886;14.814;2023-05-15T14:29:38;20.60;1.00
6054;DHT22;3055;50.886;14.814;2023-05-15T14:32:06;21.50;1.00
6054;DHT22;3055;50.886;14.814;2023-05-15T14:34:34;22.40;1.00
6054;DHT22;3055;50.886;14.814;2023-05-15T14:37:01;23.10;1.00
6054;DHT22;3055;50.886;14.814;2023-05-15T14:39:28;23.70;1.00
6054;DHT22;3055;50.886;14.814;2023-05-15T14:41:55;24.80;1.00
6054;DHT22;3055;50.886;14.814;2023-05-15T14:44:22;24.70;1.00
6054;DHT22;3055;50.886;14.814;2023-05-15T14:47:04;24.40;1.00
6054;DHT22;3055;50.886;14.814;2023-05-15T14:49:31;24.20;1.00
6054;DHT22;3055;50.886;14.814;2023-05-15T14:51:59;23.90;1.00
6054;DHT22;3055;50.886;14.814;2023-05-15T14:54:27;23.20;1.00
6054;DHT22;3055;50.886;14.814;2023-05-15T14:56:54;22.70;1.00
6054;DHT22;3055;50.886;14.814;2023-05-15T14:59:21;22.50;1.00
6054;DHT22;3055;50.886;14.814;2023-05-15T15:01:48;22.60;1.00
6054;DHT22;3055;50.886;14.814;2023-05-15T15:04:15;22.80;1.00
6054;DHT22;3055;50.886;14.814;2023-05-15T15:06:42;23.30;1.00
6054;DHT22;3055;50.886;14.814;2023-05-15T15:09:10;24.00;1.00
6054;DHT22;3055;50.886;14.814;2023-05-15T15:11:37;24.20;1.00
6054;DHT22;3055;50.886;14.814;2023-05-15T15:14:04;25.00;1.00
6054;DHT22;3055;50.886;14.814;2023-05-15T15:16:32;25.90;1.00
6054;DHT22;3055;50.886;14.814;2023-05-15T15:18:59;25.40;1.00
6054;DHT22;3055;50.886;14.814;2023-05-15T15:21:26;24.80;1.00
6054;DHT22;3055;50.886;14.814;2023-05-15T15:23:53;25.30;1.00
6054;DHT22;3055;50.886;14.814;2023-05-15T15:26:22;25.30;1.00
6054;DHT22;3055;50.886;14.814;2023-05-15T15:28:49;25.00;1.00
6054;DHT22;3055;50.886;14.814;2023-05-15T15:31:16;24.30;1.00
6054;DHT22;3055;50.886;14.814;2023-05-15T15:33:43;23.60;1.00
6054;DHT22;3055;50.886;14.814;2023-05-15T15:36:10;23.00;1.00
6054;DHT22;3055;50.886;14.814;2023-05-15T15:38:37;22.60;1.00
6054;DHT22;3055;50.886;14.814;2023-05-15T15:41:06;22.20;1.00
6054;DHT22;3055;50.886;14.814;2023-05-15T15:43:35;21.70;1.00
6054;DHT22;3055;50.886;14.814;2023-05-15T15:46:02;21.40;1.00
6054;DHT22;3055;50.886;14.814;2023-05-15T15:48:29;21.20;1.00
6054;DHT22;3055;50.886;14.814;2023-05-15T15:50:56;21.00;1.00
6054;DHT22;3055;50.886;14.814;2023-05-15T15:53:23;20.90;1.00
6054;DHT22;3055;50.886;14.814;2023-05-15T15:55:50;21.00;1.00
6054;DHT22;3055;50.886;14.814;2023-05-15T15:58:17;20.90;1.00